createdAt,value
2023-03-26T00:01:59.912Z,2.13
2023-03-26T00:04:26.532Z,2.78
2023-03-26T00:06:53.481Z,2.88
2023-03-26T00:09:20.087Z,2.35
2023-03-26T00:11:46.852Z,2.72
2023-03-26T00:14:17.564Z,2.33
2023-03-26T00:16:44.942Z,2.75
2023-03-26T00:19:11.830Z,1.80
2023-03-26T00:21:38.425Z,1.58
2023-03-26T00:24:09.502Z,2.42
2023-03-26T00:26:38.708Z,2.33
2023-03-26T00:29:06.765Z,1.95
2023-03-26T00:31:33.915Z,2.00
2023-03-26T00:34:03.509Z,2.90
2023-03-26T00:36:30.513Z,2.20
2023-03-26T00:38:57.156Z,1.97
2023-03-26T00:41:26.370Z,2.00
2023-03-26T00:43:58.907Z,1.90
2023-03-26T00:46:29.705Z,1.88
2023-03-26T00:48:58.870Z,2.67
2023-03-26T00:51:26.465Z,2.37
2023-03-26T00:53:53.094Z,1.88
2023-03-26T00:56:19.970Z,2.00
2023-03-26T00:58:47.647Z,1.88
2023-03-26T01:01:17.384Z,2.10
2023-03-26T01:03:57.146Z,1.63
2023-03-26T01:06:36.233Z,1.25
2023-03-26T01:09:24.239Z,2.03
2023-03-26T01:11:51.026Z,2.10
2023-03-26T01:14:26.965Z,1.63
2023-03-26T01:16:55.820Z,2.67
2023-03-26T01:19:40.798Z,2.13
2023-03-26T01:22:11.244Z,2.53
2023-03-26T01:24:39.503Z,2.08
2023-03-26T01:27:12.189Z,1.88
2023-03-26T01:29:55.718Z,1.93
2023-03-26T01:32:31.686Z,1.58
2023-03-26T01:35:25.015Z,1.95
2023-03-26T01:38:17.187Z,1.80
2023-03-26T01:41:04.688Z,1.35
2023-03-26T01:43:39.579Z,2.00
2023-03-26T01:46:10.212Z,2.20
2023-03-26T01:48:42.934Z,1.95
2023-03-26T01:51:12.514Z,1.90
2023-03-26T01:53:44.908Z,2.88
2023-03-26T01:56:31.409Z,1.87
2023-03-26T01:59:23.157Z,2.13
2023-03-26T02:02:14.185Z,1.73
2023-03-26T02:05:04.976Z,1.90
2023-03-26T02:07:41.089Z,2.40
2023-03-26T02:10:14.844Z,2.27
2023-03-26T02:12:43.779Z,2.35
2023-03-26T02:15:12.059Z,2.60
2023-03-26T02:17:40.436Z,2.33
2023-03-26T02:20:11.039Z,2.35
2023-03-26T02:22:41.040Z,1.73
2023-03-26T02:25:10.601Z,1.63
2023-03-26T02:27:38.067Z,2.33
2023-03-26T02:30:09.487Z,3.00
2023-03-26T02:32:36.661Z,2.47
2023-03-26T02:35:06.021Z,2.17
2023-03-26T02:37:35.877Z,1.58
2023-03-26T02:40:04.736Z,1.80
2023-03-26T02:42:31.301Z,2.70
2023-03-26T02:44:57.803Z,2.05
2023-03-26T02:47:24.683Z,2.90
2023-03-26T02:49:51.361Z,1.98
2023-03-26T02:52:19.049Z,2.78
2023-03-26T02:54:45.771Z,3.38
2023-03-26T02:57:12.457Z,3.33
2023-03-26T02:59:39.060Z,2.80
2023-03-26T03:02:05.658Z,2.28
2023-03-26T03:04:32.293Z,2.17
2023-03-26T03:07:00.003Z,2.90
2023-03-26T03:09:26.676Z,2.38
2023-03-26T03:11:53.305Z,3.03
2023-03-26T03:14:20.358Z,3.35
2023-03-26T03:16:47.007Z,2.55
2023-03-26T03:19:13.743Z,2.78
2023-03-26T03:21:42.191Z,3.10
2023-03-26T03:24:10.108Z,3.50
2023-03-26T03:26:37.708Z,2.53
2023-03-26T03:29:04.387Z,3.45
2023-03-26T03:31:31.041Z,2.55
2023-03-26T03:33:57.919Z,3.72
2023-03-26T03:36:28.108Z,3.27
2023-03-26T03:38:55.165Z,4.22
2023-03-26T03:41:21.841Z,2.17
2023-03-26T03:43:48.893Z,2.17
2023-03-26T03:46:15.447Z,3.47
2023-03-26T03:48:48.205Z,3.23
2023-03-26T03:51:15.187Z,4.50
2023-03-26T03:53:41.769Z,3.92
2023-03-26T03:56:10.542Z,3.97
2023-03-26T03:58:37.667Z,4.97
2023-03-26T04:01:04.737Z,5.10
2023-03-26T04:03:34.049Z,5.13
2023-03-26T04:06:01.660Z,5.78
2023-03-26T04:08:28.276Z,5.70
2023-03-26T04:10:54.928Z,4.72
2023-03-26T04:13:22.350Z,6.40
2023-03-26T04:15:48.909Z,6.35
2023-03-26T04:18:15.556Z,6.35
2023-03-26T04:20:47.130Z,5.85
2023-03-26T04:23:14.931Z,5.72
2023-03-26T04:25:46.673Z,6.23
2023-03-26T04:28:26.512Z,5.88
2023-03-26T04:30:55.285Z,6.15
2023-03-26T04:33:21.949Z,4.75
2023-03-26T04:35:48.722Z,5.40
2023-03-26T04:38:16.807Z,5.20
2023-03-26T04:40:47.374Z,6.40
2023-03-26T04:43:16.556Z,6.78
2023-03-26T04:45:43.780Z,7.25
2023-03-26T04:48:14.798Z,6.22
2023-03-26T04:50:45.673Z,6.50
2023-03-26T04:53:15.621Z,6.15
2023-03-26T04:55:49.214Z,6.78
2023-03-26T04:58:16.433Z,6.22
2023-03-26T05:00:43.466Z,6.68
2023-03-26T05:03:11.840Z,6.97
2023-03-26T05:05:39.924Z,5.63
2023-03-26T05:08:06.684Z,7.80
2023-03-26T05:10:33.420Z,5.60
2023-03-26T05:13:00.126Z,6.40
2023-03-26T05:15:26.931Z,6.67
2023-03-26T05:17:55.760Z,6.88
2023-03-26T05:20:26.441Z,7.72
2023-03-26T05:22:53.084Z,7.78
2023-03-26T05:25:20.203Z,7.68
2023-03-26T05:27:47.410Z,7.90
2023-03-26T05:30:17.883Z,7.85
2023-03-26T05:32:44.679Z,7.22
2023-03-26T05:35:12.595Z,7.45
2023-03-26T05:37:39.246Z,6.80
2023-03-26T05:40:11.800Z,8.77
2023-03-26T05:42:39.347Z,7.05
2023-03-26T05:45:08.370Z,7.07
2023-03-26T05:47:35.061Z,7.07
2023-03-26T05:50:01.903Z,7.35
2023-03-26T05:52:29.194Z,7.50
2023-03-26T05:54:56.154Z,7.35
2023-03-26T05:57:24.213Z,6.53
2023-03-26T05:59:50.958Z,7.03
2023-03-26T06:02:17.545Z,6.32
2023-03-26T06:04:45.816Z,6.47
2023-03-26T06:07:12.826Z,7.30
2023-03-26T06:09:40.908Z,6.40
2023-03-26T06:12:09.490Z,7.82
2023-03-26T06:14:36.561Z,6.93
2023-03-26T06:17:03.734Z,6.67
2023-03-26T06:19:30.324Z,7.05
2023-03-26T06:21:57.040Z,7.07
2023-03-26T06:24:23.621Z,7.00
2023-03-26T06:26:50.507Z,6.47
2023-03-26T06:29:17.128Z,6.57
2023-03-26T06:31:43.933Z,6.13
2023-03-26T06:34:10.851Z,6.53
2023-03-26T06:36:37.482Z,6.38
2023-03-26T06:39:07.583Z,7.00
2023-03-26T06:41:35.697Z,8.07
2023-03-26T06:44:02.388Z,7.25
2023-03-26T06:46:29.305Z,7.22
2023-03-26T06:48:56.127Z,6.63
2023-03-26T06:51:22.709Z,6.35
2023-03-26T06:53:49.275Z,6.37
2023-03-26T06:56:16.053Z,6.10
2023-03-26T06:58:42.567Z,5.97
2023-03-26T07:01:09.251Z,6.10
2023-03-26T07:03:36.023Z,5.38
2023-03-26T07:06:02.604Z,5.47
2023-03-26T07:08:31.096Z,5.53
2023-03-26T07:10:57.897Z,6.47
2023-03-26T07:13:24.795Z,6.80
2023-03-26T07:15:51.478Z,6.97
2023-03-26T07:18:18.476Z,6.53
2023-03-26T07:20:46.284Z,6.28
2023-03-26T07:23:15.639Z,6.20
2023-03-26T07:25:47.886Z,6.43
2023-03-26T07:28:34.143Z,7.28
2023-03-26T07:31:42.522Z,6.93
2023-03-26T07:34:40.818Z,7.03
2023-03-26T07:37:36.981Z,7.05
2023-03-26T07:40:28.181Z,6.93
2023-03-26T07:43:07.501Z,7.50
2023-03-26T07:45:40.872Z,7.10
2023-03-26T07:48:25.544Z,7.28
2023-03-26T07:53:46.970Z,7.82
2023-03-26T07:56:21.508Z,7.85
2023-03-26T07:59:06.635Z,8.27
2023-03-26T08:02:14.209Z,8.50
2023-03-26T08:05:03.785Z,7.95
2023-03-26T08:07:55.421Z,7.63
2023-03-26T08:10:51.004Z,7.35
2023-03-26T08:13:35.697Z,7.80
2023-03-26T08:16:08.994Z,7.18
2023-03-26T08:18:54.617Z,7.40
2023-03-26T08:21:28.977Z,6.47
2023-03-26T08:24:18.181Z,6.85
2023-03-26T08:27:03.836Z,7.80
2023-03-26T08:29:58.211Z,7.38
2023-03-26T08:32:25.892Z,6.68
2023-03-26T08:34:52.802Z,7.40
2023-03-26T08:37:19.408Z,7.18
2023-03-26T08:39:46.107Z,6.40
2023-03-26T08:42:44.597Z,6.65
2023-03-26T08:49:03.710Z,6.88
2023-03-26T08:52:14.047Z,8.60
2023-03-26T08:55:06.372Z,7.03
2023-03-26T08:57:57.013Z,8.00
2023-03-26T09:00:38.550Z,8.50
2023-03-26T09:03:42.021Z,7.00
2023-03-26T09:06:36.361Z,8.85
2023-03-26T09:09:07.905Z,8.23
2023-03-26T09:12:26.691Z,9.02
2023-03-26T09:15:14.522Z,7.35
2023-03-26T09:18:05.840Z,8.50
2023-03-26T09:20:48.491Z,7.00
2023-03-26T09:23:32.886Z,7.23
2023-03-26T09:26:33.914Z,6.88
2023-03-26T09:29:12.393Z,7.55
2023-03-26T09:32:03.247Z,7.15
2023-03-26T09:35:08.373Z,5.95
2023-03-26T09:37:58.849Z,6.77
2023-03-26T09:40:38.131Z,6.03
2023-03-26T09:43:49.028Z,4.85
2023-03-26T09:46:52.390Z,6.38
2023-03-26T09:49:47.699Z,5.78
2023-03-26T09:52:47.633Z,6.03
2023-03-26T09:56:02.660Z,5.30
2023-03-26T09:59:17.762Z,5.65
2023-03-26T10:05:13.749Z,4.43
2023-03-26T10:08:12.656Z,3.43
2023-03-26T10:10:53.607Z,5.88
2023-03-26T10:13:33.904Z,3.40
2023-03-26T10:16:27.356Z,3.83
2023-03-26T10:19:11.092Z,4.00
2023-03-26T10:22:09.932Z,4.57
2023-03-26T10:25:16.045Z,3.75
2023-03-26T10:28:00.692Z,4.00
2023-03-26T10:31:25.463Z,3.65
2023-03-26T10:34:28.618Z,3.25
2023-03-26T10:37:08.643Z,3.30
2023-03-26T10:40:06.160Z,2.45
2023-03-26T10:42:54.448Z,2.88
2023-03-26T10:45:51.377Z,3.13
2023-03-26T10:48:35.960Z,3.38
2023-03-26T10:51:08.544Z,2.53
2023-03-26T10:53:47.262Z,2.47
2023-03-26T10:56:38.382Z,2.80
2023-03-26T10:59:12.579Z,2.00
2023-03-26T11:02:09.522Z,2.35
2023-03-26T11:05:24.374Z,2.00
2023-03-26T11:08:00.375Z,2.00
2023-03-26T11:10:56.618Z,2.08
2023-03-26T11:13:46.259Z,2.35
2023-03-26T11:16:32.397Z,2.40
2023-03-26T11:19:12.067Z,2.40
2023-03-26T11:21:45.362Z,1.40
2023-03-26T11:24:49.323Z,2.13
2023-03-26T11:27:39.996Z,1.65
2023-03-26T11:30:31.481Z,1.40
2023-03-26T11:33:03.502Z,2.27
2023-03-26T11:35:40.420Z,1.17
2023-03-26T11:38:22.257Z,1.90
2023-03-26T11:40:53.333Z,2.20
2023-03-26T11:43:26.286Z,1.92
2023-03-26T11:45:53.870Z,1.37
2023-03-26T11:48:32.385Z,1.58
2023-03-26T11:51:04.546Z,2.20
2023-03-26T11:53:35.073Z,2.00
2023-03-26T11:56:14.970Z,1.27
2023-03-26T11:58:54.662Z,2.27
2023-03-26T12:04:40.463Z,2.08
2023-03-26T12:07:23.918Z,2.38
2023-03-26T12:09:57.105Z,2.45
2023-03-26T12:15:50.555Z,1.75
2023-03-26T12:18:25.334Z,2.03
2023-03-26T12:24:08.556Z,1.33
2023-03-26T12:26:39.611Z,1.77
2023-03-26T12:29:13.374Z,0.90
2023-03-26T12:32:07.323Z,2.05
2023-03-26T12:34:39.642Z,1.52
2023-03-26T12:37:08.013Z,1.00
2023-03-26T12:40:08.111Z,1.33
2023-03-26T12:44:47.301Z,1.50
2023-03-26T12:45:29.167Z,1.20
2023-03-26T12:48:03.796Z,1.13
2023-03-26T12:50:43.206Z,1.70
2023-03-26T12:53:47.861Z,1.30
2023-03-26T12:56:36.446Z,0.70
2023-03-26T12:59:16.077Z,1.13
2023-03-26T13:01:58.116Z,0.90
2023-03-26T13:05:05.118Z,1.15
2023-03-26T13:08:15.390Z,1.00
2023-03-26T13:11:05.259Z,1.35
2023-03-26T13:14:07.414Z,0.88
2023-03-26T13:17:04.073Z,1.25
2023-03-26T13:19:42.915Z,0.70
2023-03-26T13:22:27.685Z,0.87
2023-03-26T13:25:22.312Z,1.02
2023-03-26T13:28:19.758Z,1.10
2023-03-26T13:31:06.205Z,1.20
2023-03-26T13:33:45.914Z,0.88
2023-03-26T13:36:41.881Z,0.90
2023-03-26T13:39:36.281Z,1.20
2023-03-26T13:42:15.182Z,1.58
2023-03-26T13:45:14.597Z,1.27
2023-03-26T13:47:50.522Z,0.82
2023-03-26T13:50:39.370Z,1.07
2023-03-26T13:53:14.289Z,0.82
2023-03-26T13:55:45.873Z,0.80
2023-03-26T13:58:42.107Z,0.73
2023-03-26T14:04:33.420Z,0.97
2023-03-26T14:07:15.917Z,0.90
2023-03-26T14:09:56.972Z,0.85
2023-03-26T14:12:38.944Z,0.75
2023-03-26T14:15:16.585Z,1.08
2023-03-26T14:17:56.853Z,1.47
2023-03-26T14:20:57.034Z,0.70
2023-03-26T14:24:02.021Z,0.98
2023-03-26T14:26:58.530Z,0.60
2023-03-26T14:29:56.856Z,1.00
2023-03-26T14:32:44.037Z,1.00
2023-03-26T14:35:58.517Z,1.05
2023-03-26T14:38:54.435Z,0.65
2023-03-26T14:41:27.863Z,0.68
2023-03-26T14:44:47.576Z,0.93
2023-03-26T14:47:21.546Z,0.63
2023-03-26T14:50:06.813Z,0.95
2023-03-26T14:53:00.871Z,1.13
2023-03-26T14:55:30.532Z,0.50
2023-03-26T14:58:13.930Z,0.43
2023-03-26T15:01:04.360Z,0.93
2023-03-26T15:04:22.147Z,1.00
2023-03-26T15:07:15.570Z,0.47
2023-03-26T15:10:18.616Z,0.98
2023-03-26T15:13:23.202Z,0.75
2023-03-26T15:16:08.496Z,0.77
2023-03-26T15:18:53.579Z,0.85
2023-03-26T15:22:00.185Z,0.75
2023-03-26T15:24:27.079Z,1.17
2023-03-26T15:27:18.883Z,1.77
2023-03-26T15:30:13.942Z,0.77
2023-03-26T15:33:00.506Z,0.70
2023-03-26T15:35:47.106Z,0.70
2023-03-26T15:39:04.370Z,0.90
2023-03-26T15:42:02.317Z,0.50
2023-03-26T15:44:54.162Z,1.17
2023-03-26T15:47:48.748Z,0.52
2023-03-26T15:50:36.465Z,0.70
2023-03-26T15:53:42.146Z,1.20
2023-03-26T15:56:20.389Z,0.90
2023-03-26T15:58:54.057Z,1.00
2023-03-26T16:01:46.546Z,0.60
2023-03-26T16:04:26.636Z,1.20
2023-03-26T16:07:03.642Z,0.95
2023-03-26T16:09:33.170Z,0.85
2023-03-26T16:12:17.651Z,1.07
2023-03-26T16:15:03.776Z,0.80
2023-03-26T16:18:10.328Z,0.82
2023-03-26T16:20:50.683Z,0.95
2023-03-26T16:24:12.111Z,1.10
2023-03-26T16:26:53.056Z,1.77
2023-03-26T16:29:22.545Z,0.90
2023-03-26T16:32:14.952Z,0.90
2023-03-26T16:34:50.946Z,0.75
2023-03-26T16:37:52.676Z,1.45
2023-03-26T16:40:39.151Z,0.73
2023-03-26T16:43:32.322Z,1.88
2023-03-26T16:46:45.256Z,0.30
2023-03-26T16:49:45.688Z,1.00
2023-03-26T16:52:50.670Z,0.88
2023-03-26T16:55:28.611Z,0.50
2023-03-26T16:58:03.742Z,1.02
2023-03-26T17:00:48.214Z,0.90
2023-03-26T17:03:31.873Z,0.88
2023-03-26T17:06:06.097Z,0.70
2023-03-26T17:08:42.226Z,0.83
2023-03-26T17:11:36.215Z,0.60
2023-03-26T17:14:27.374Z,0.60
2023-03-26T17:17:03.008Z,0.63
2023-03-26T17:20:11.771Z,0.63
2023-03-26T17:22:46.196Z,0.50
2023-03-26T17:25:42.455Z,0.70
2023-03-26T17:28:37.135Z,0.50
2023-03-26T17:31:34.281Z,0.75
2023-03-26T17:34:38.033Z,0.55
2023-03-26T17:37:31.030Z,0.30
2023-03-26T17:40:01.421Z,0.70
2023-03-26T17:42:33.483Z,1.35
2023-03-26T17:45:02.710Z,0.80
2023-03-26T17:47:38.605Z,0.70
2023-03-26T17:50:08.282Z,1.60
2023-03-26T17:52:48.208Z,0.65
2023-03-26T17:55:20.020Z,1.17
2023-03-26T17:57:53.316Z,0.60
2023-03-26T18:00:23.899Z,0.60
2023-03-26T18:02:56.326Z,1.30
2023-03-26T18:05:27.084Z,0.65
2023-03-26T18:08:12.286Z,0.98
2023-03-26T18:11:05.290Z,0.90
2023-03-26T18:13:45.755Z,0.70
2023-03-26T18:16:17.430Z,0.60
2023-03-26T18:18:54.000Z,0.95
2023-03-26T18:21:28.370Z,0.50
2023-03-26T18:23:59.857Z,0.80
2023-03-26T18:26:36.959Z,0.20
2023-03-26T18:29:27.246Z,0.57
2023-03-26T18:31:55.547Z,0.38
2023-03-26T18:34:22.584Z,0.68
2023-03-26T18:37:01.206Z,0.63
2023-03-26T18:39:28.121Z,0.40
2023-03-26T18:41:54.981Z,0.70
2023-03-26T18:44:22.000Z,0.50
2023-03-26T18:46:49.002Z,0.65
2023-03-26T18:49:16.854Z,0.75
2023-03-26T18:51:56.042Z,0.50
2023-03-26T18:54:25.172Z,0.93
2023-03-26T18:56:52.802Z,0.70
2023-03-26T18:59:35.169Z,0.70
2023-03-26T19:02:11.538Z,0.90
2023-03-26T19:04:38.902Z,0.45
2023-03-26T19:07:10.829Z,0.60
2023-03-26T19:09:38.990Z,1.35
2023-03-26T19:12:08.916Z,1.00
2023-03-26T19:14:53.519Z,0.60
2023-03-26T19:17:21.281Z,0.77
2023-03-26T19:19:50.204Z,0.70
2023-03-26T19:22:17.923Z,0.68
2023-03-26T19:24:44.580Z,0.88
2023-03-26T19:27:12.453Z,0.68
2023-03-26T19:29:40.433Z,0.88
2023-03-26T19:32:27.738Z,1.00
2023-03-26T19:34:54.366Z,0.70
2023-03-26T19:37:25.031Z,0.80
2023-03-26T19:39:54.187Z,0.60
2023-03-26T19:42:27.196Z,0.60
2023-03-26T19:45:17.906Z,0.60
2023-03-26T19:47:48.418Z,0.57
2023-03-26T19:50:23.503Z,0.60
2023-03-26T19:53:16.823Z,0.32
2023-03-26T19:55:54.238Z,0.70
2023-03-26T19:58:21.423Z,0.30
2023-03-26T20:00:48.041Z,1.35
2023-03-26T20:03:16.812Z,0.40
2023-03-26T20:05:43.832Z,0.82
2023-03-26T20:08:14.961Z,0.73
2023-03-26T20:10:43.159Z,0.73
2023-03-26T20:13:16.814Z,0.93
2023-03-26T20:18:43.624Z,1.60
2023-03-26T20:21:12.456Z,0.52
2023-03-26T20:23:43.191Z,0.53
2023-03-26T20:26:15.249Z,0.40
2023-03-26T20:28:48.213Z,0.90
2023-03-26T20:31:22.025Z,0.50
2023-03-26T20:33:53.415Z,0.75
2023-03-26T20:36:34.342Z,0.30
2023-03-26T20:39:05.618Z,0.40
2023-03-26T20:41:32.775Z,0.90
2023-03-26T20:43:59.348Z,0.50
2023-03-26T20:46:30.791Z,1.25
2023-03-26T20:48:58.969Z,0.67
2023-03-26T20:51:28.191Z,0.52
2023-03-26T20:53:56.305Z,0.40
2023-03-26T20:56:23.531Z,0.57
2023-03-26T20:59:03.535Z,0.52
2023-03-26T21:01:37.785Z,0.40
2023-03-26T21:04:04.524Z,0.47
2023-03-26T21:06:31.140Z,0.40
2023-03-26T21:08:58.063Z,0.60
2023-03-26T21:11:46.636Z,0.68
2023-03-26T21:14:21.160Z,0.60
2023-03-26T21:16:48.403Z,0.40
2023-03-26T21:19:15.880Z,0.55
2023-03-26T21:21:59.202Z,0.40
2023-03-26T21:24:37.987Z,0.40
2023-03-26T21:27:26.450Z,0.40
2023-03-26T21:29:54.550Z,0.40
2023-03-26T21:32:22.772Z,0.35
2023-03-26T21:34:58.598Z,0.50
2023-03-26T21:37:26.622Z,0.68
2023-03-26T21:39:53.467Z,0.40
2023-03-26T21:42:20.534Z,0.40
2023-03-26T21:44:47.694Z,0.50
2023-03-26T21:47:14.902Z,0.70
2023-03-26T21:49:41.895Z,0.60
2023-03-26T21:52:14.624Z,0.30
2023-03-26T21:54:43.218Z,0.40
2023-03-26T21:57:30.221Z,0.40
2023-03-26T22:00:14.323Z,0.50
2023-03-26T22:02:58.534Z,0.30
2023-03-26T22:08:40.678Z,0.82
2023-03-26T22:14:04.992Z,0.40
2023-03-26T22:16:31.787Z,0.60
2023-03-26T22:18:58.398Z,0.47
2023-03-26T22:24:19.822Z,0.30
2023-03-26T22:26:47.213Z,0.82
2023-03-26T22:29:14.606Z,1.15
2023-03-26T22:34:36.383Z,0.35
2023-03-26T22:37:03.034Z,0.43
2023-03-26T22:39:29.704Z,0.50
2023-03-26T22:41:56.438Z,0.40
2023-03-26T22:44:23.111Z,0.60
2023-03-26T22:46:51.632Z,0.60
2023-03-26T22:49:18.946Z,0.30
2023-03-26T22:51:45.616Z,0.70
2023-03-26T22:54:12.215Z,0.63
2023-03-26T22:56:39.297Z,0.50
2023-03-26T22:59:06.526Z,0.38
2023-03-26T23:01:33.345Z,0.75
2023-03-26T23:03:59.876Z,0.52
2023-03-26T23:06:26.480Z,0.57
2023-03-26T23:08:54.414Z,0.40
2023-03-26T23:11:22.366Z,0.80
2023-03-26T23:13:49.614Z,0.82
2023-03-26T23:16:17.470Z,0.52
2023-03-26T23:18:44.696Z,0.50
2023-03-26T23:21:18.506Z,0.50
2023-03-26T23:23:45.816Z,0.32
2023-03-26T23:26:12.838Z,0.70
2023-03-26T23:28:40.985Z,0.40
2023-03-26T23:31:09.885Z,0.40
2023-03-26T23:33:39.183Z,0.40
2023-03-26T23:36:10.488Z,0.60
2023-03-26T23:38:44.229Z,0.47
2023-03-26T23:41:15.291Z,0.50
2023-03-26T23:43:54.840Z,0.40
2023-03-26T23:46:24.479Z,0.87
2023-03-26T23:48:53.262Z,0.57
2023-03-26T23:51:21.212Z,0.30
2023-03-26T23:53:49.152Z,0.88
2023-03-26T23:56:16.593Z,0.45
2023-03-26T23:58:43.387Z,0.53
